»·PEaware :: N939MA KBFL-KMHV

N939MA :: KBFL-KMHV

FLIGHT INFORMATION

Flight Status: Arrived
Operator: Privately registered:
United States
More flights under this callsign
Pilot: Lary E. (11379)
Aircraft: CESSNA 172 SKYHAWK
(C172)
More flights by this aircraft type
Origin: KBFL Meadows
United States
Destination: KMHV Mojave
United States
More flights between these airports :: More routes between these airports
Route: +KBFL KMHV
File this flight plan on PilotEdge
Remarks:
Altitude:
(Current/Filed)
7,500ft
Speed:
(Current/Filed)
110kts
Departed: 19-Sep-18 07:08 PM
Arrived: 19-Sep-18 07:44 PM
Distance/Time
Traveled:
50nm/0:36
Distance/Time
To Go:
Arrived

Flight Plot

Page will automatically refresh every two minutes.


Map Options




Map Legend


Flown Route
Filed Route
Departure Airport
Arrival Airport
Navaid (VOR, NDB)
Fix

Horizontal Profiles

Position Reports

Time Latitude Longitude Heading Altitude Ground
Speed
19-Sep-18 18:42 35.435480 -119.051559 91 505ft 0kts
19-Sep-18 18:43 35.435480 -119.051559 91 505ft 0kts
19-Sep-18 18:44 35.435480 -119.051559 91 505ft 0kts
19-Sep-18 18:45 35.435480 -119.051559 91 505ft 0kts
19-Sep-18 18:46 35.435480 -119.051559 91 505ft 0kts
19-Sep-18 18:47 35.435480 -119.051559 91 505ft 0kts
19-Sep-18 18:48 35.435480 -119.051559 91 505ft 0kts
19-Sep-18 18:49 35.435480 -119.051559 91 505ft 0kts
19-Sep-18 18:50 35.435480 -119.051559 91 505ft 0kts
19-Sep-18 18:51 35.435480 -119.051559 91 505ft 0kts
19-Sep-18 18:52 35.435480 -119.051546 89 505ft 0kts
19-Sep-18 18:53 35.435480 -119.051546 89 505ft 0kts
19-Sep-18 18:54 35.435480 -119.051546 89 505ft 0kts
19-Sep-18 18:55 35.435480 -119.051546 89 505ft 0kts
19-Sep-18 18:56 35.435480 -119.051546 89 505ft 0kts
19-Sep-18 18:57 35.435480 -119.051546 89 505ft 0kts
19-Sep-18 18:58 35.435480 -119.051546 89 505ft 0kts
19-Sep-18 18:59 35.435480 -119.051546 89 505ft 0kts
19-Sep-18 19:00 35.435480 -119.051546 89 505ft 0kts
19-Sep-18 19:01 35.435482 -119.051471 87 505ft 0kts
19-Sep-18 19:02 35.435444 -119.053130 248 501ft 15kts
19-Sep-18 19:03 35.433729 -119.054376 184 491ft 0kts
19-Sep-18 19:04 35.435920 -119.056481 315 493ft 28kts
19-Sep-18 19:05 35.438150 -119.059378 146 496ft 7kts
19-Sep-18 19:06 35.433508 -119.053608 131 492ft 32kts
19-Sep-18 19:07 35.427238 -119.045992 139 484ft 16kts
19-Sep-18 19:08 35.425902 -119.044708 197 480ft 0kts
19-Sep-18 19:09 35.425902 -119.044708 197 480ft 0kts
19-Sep-18 19:10 35.428656 -119.049991 312 522ft 74kts
19-Sep-18 19:11 35.443572 -119.065495 16 1629ft 73kts
19-Sep-18 19:12 35.452620 -119.046831 61 2656ft 73kts
19-Sep-18 19:13 35.447448 -119.023368 123 3611ft 76kts
19-Sep-18 19:14 35.437378 -119.001057 106 4559ft 72kts
19-Sep-18 19:15 35.425105 -118.979056 124 5373ft 80kts
19-Sep-18 19:16 35.410738 -118.958502 115 6201ft 79kts
19-Sep-18 19:17 35.399151 -118.934765 114 6961ft 82kts
19-Sep-18 19:18 35.387619 -118.910144 120 7608ft 93kts
19-Sep-18 19:19 35.370970 -118.880352 125 7712ft 111kts
19-Sep-18 19:20 35.361596 -118.864651 126 7743ft 113kts
19-Sep-18 19:21 35.343006 -118.832233 119 7716ft 118kts
19-Sep-18 19:22 35.327230 -118.796796 117 7678ft 120kts
19-Sep-18 19:23 35.311507 -118.761005 120 7613ft 119kts
19-Sep-18 19:24 35.293159 -118.727362 126 7525ft 118kts
19-Sep-18 19:25 35.275159 -118.694300 121 7477ft 117kts
19-Sep-18 19:26 35.263136 -118.658059 107 7599ft 115kts
19-Sep-18 19:27 35.253654 -118.620165 107 7678ft 116kts
19-Sep-18 19:28 35.239489 -118.584890 120 7732ft 118kts
19-Sep-18 19:29 35.223523 -118.549842 116 7754ft 119kts
19-Sep-18 19:30 35.208952 -118.513271 115 7719ft 120kts
19-Sep-18 19:31 35.194919 -118.476569 112 7708ft 118kts
19-Sep-18 19:32 35.182889 -118.441149 111 7679ft 107kts
19-Sep-18 19:33 35.168657 -118.409346 120 7664ft 107kts
19-Sep-18 19:34 35.154585 -118.379250 117 7314ft 105kts
19-Sep-18 19:35 35.141965 -118.349425 115 7059ft 97kts
19-Sep-18 19:36 35.130071 -118.319387 114 6747ft 106kts
19-Sep-18 19:37 35.118147 -118.287133 116 6246ft 101kts
19-Sep-18 19:38 35.102911 -118.257523 124 5340ft 108kts
19-Sep-18 19:39 35.088415 -118.228616 113 4751ft 93kts
19-Sep-18 19:40 35.080216 -118.198956 117 4247ft 99kts
19-Sep-18 19:41 35.063407 -118.174727 134 3943ft 86kts
19-Sep-18 19:42 35.044761 -118.155884 144 3627ft 92kts
19-Sep-18 19:43 35.024259 -118.138522 135 3121ft 85kts
19-Sep-18 19:44 35.032657 -118.120226 358 3078ft 78kts
19-Sep-18 19:45 35.047529 -118.134315 311 2691ft 43kts
19-Sep-18 19:46 35.048416 -118.137411 275 2699ft 24kts
19-Sep-18 19:47 35.051464 -118.142552 233 2715ft 20kts
19-Sep-18 19:48 35.049246 -118.147684 267 2721ft 0kts
19-Sep-18 19:49 35.049246 -118.147683 267 2721ft 0kts
19-Sep-18 19:50 35.049246 -118.147683 267 2721ft 0kts

Navigation Log

Ident Type
Flight plan parsing failed, navigation log unavailable